sensor_id;sensor_type;location;lat;lon;timestamp;pressure;altitude;pressure_sealevel;temperature;humidity
65280;BME280;51878;55.748;48.742;2023-02-12T00:01:17;98991.25;;;-7.80;100.00
65280;BME280;51878;55.748;48.742;2023-02-12T00:03:45;98968.50;;;-7.97;100.00
65280;BME280;51878;55.748;48.742;2023-02-12T00:06:12;98995.31;;;-7.91;100.00
65280;BME280;51878;55.748;48.742;2023-02-12T00:08:41;98974.63;;;-8.14;100.00
65280;BME280;51878;55.748;48.742;2023-02-12T00:11:13;98851.22;;;-8.82;100.00
65280;BME280;51878;55.748;48.742;2023-02-12T00:13:41;99001.66;;;-7.95;100.00
65280;BME280;51878;55.748;48.742;2023-02-12T00:16:11;98987.22;;;-8.03;100.00
65280;BME280;51878;55.748;48.742;2023-02-12T00:18:39;98976.09;;;-8.08;100.00
65280;BME280;51878;55.748;48.742;2023-02-12T00:21:06;98983.88;;;-8.07;100.00
65280;BME280;51878;55.748;48.742;2023-02-12T00:23:37;98963.34;;;-8.16;100.00
65280;BME280;51878;55.748;48.742;2023-02-12T00:26:06;98831.03;;;-8.98;100.00
65280;BME280;51878;55.748;48.742;2023-02-12T00:28:34;98974.91;;;-8.03;100.00
65280;BME280;51878;55.748;48.742;2023-02-12T00:31:09;98764.00;;;-9.38;100.00
65280;BME280;51878;55.748;48.742;2023-02-12T00:33:37;98962.19;;;-8.11;100.00
65280;BME280;51878;55.748;48.742;2023-02-12T00:36:05;98952.06;;;-8.18;100.00
65280;BME280;51878;55.748;48.742;2023-02-12T00:38:32;98976.19;;;-7.94;100.00
65280;BME280;51878;55.748;48.742;2023-02-12T00:41:00;98947.22;;;-8.26;100.00
65280;BME280;51878;55.748;48.742;2023-02-12T00:43:27;98931.00;;;-8.34;100.00
65280;BME280;51878;55.748;48.742;2023-02-12T00:45:54;98940.69;;;-8.19;100.00
65280;BME280;51878;55.748;48.742;2023-02-12T00:48:21;98899.47;;;-8.50;100.00
65280;BME280;51878;55.748;48.742;2023-02-12T00:50:49;98944.88;;;-8.15;100.00
65280;BME280;51878;55.748;48.742;2023-02-12T00:53:16;98874.47;;;-8.41;100.00
65280;BME280;51878;55.748;48.742;2023-02-12T00:55:43;98852.72;;;-8.61;100.00
65280;BME280;51878;55.748;48.742;2023-02-12T00:58:11;98922.63;;;-8.25;100.00
65280;BME280;51878;55.748;48.742;2023-02-12T01:00:38;98946.97;;;-8.21;100.00
65280;BME280;51878;55.748;48.742;2023-02-12T01:03:05;98959.06;;;-8.01;100.00
65280;BME280;51878;55.748;48.742;2023-02-12T01:05:32;98949.81;;;-7.93;100.00
65280;BME280;51878;55.748;48.742;2023-02-12T01:07:59;98927.75;;;-8.06;100.00
65280;BME280;51878;55.748;48.742;2023-02-12T01:10:27;98938.09;;;-8.03;100.00
65280;BME280;51878;55.748;48.742;2023-02-12T01:12:54;98867.91;;;-8.34;100.00
65280;BME280;51878;55.748;48.742;2023-02-12T01:15:21;98918.31;;;-8.10;100.00
65280;BME280;51878;55.748;48.742;2023-02-12T01:17:52;98877.53;;;-8.33;100.00
65280;BME280;51878;55.748;48.742;2023-02-12T01:20:21;98872.94;;;-8.45;100.00
65280;BME280;51878;55.748;48.742;2023-02-12T01:22:49;98871.84;;;-8.41;100.00
65280;BME280;51878;55.748;48.742;2023-02-12T01:25:17;98917.50;;;-8.11;100.00
65280;BME280;51878;55.748;48.742;2023-02-12T01:27:46;98899.22;;;-8.14;100.00
65280;BME280;51878;55.748;48.742;2023-02-12T01:30:14;98838.44;;;-8.55;100.00
65280;BME280;51878;55.748;48.742;2023-02-12T01:32:41;98927.56;;;-8.03;100.00
65280;BME280;51878;55.748;48.742;2023-02-12T01:35:09;98704.13;;;-9.30;100.00
65280;BME280;51878;55.748;48.742;2023-02-12T01:37:36;98894.56;;;-8.24;100.00
65280;BME280;51878;55.748;48.742;2023-02-12T01:40:06;98781.41;;;-8.86;100.00
65280;BME280;51878;55.748;48.742;2023-02-12T01:42:33;98865.38;;;-8.36;100.00
65280;BME280;51878;55.748;48.742;2023-02-12T01:47:41;98918.53;;;-7.97;100.00
65280;BME280;51878;55.748;48.742;2023-02-12T01:50:18;98813.91;;;-8.56;100.00
65280;BME280;51878;55.748;48.742;2023-02-12T01:52:50;98892.03;;;-8.26;100.00
65280;BME280;51878;55.748;48.742;2023-02-12T01:55:20;98887.88;;;-8.14;100.00
65280;BME280;51878;55.748;48.742;2023-02-12T01:57:47;98821.81;;;-8.56;100.00
65280;BME280;51878;55.748;48.742;2023-02-12T02:00:19;98854.97;;;-8.37;100.00
65280;BME280;51878;55.748;48.742;2023-02-12T02:02:56;98915.38;;;-8.04;100.00
65280;BME280;51878;55.748;48.742;2023-02-12T02:05:37;98893.38;;;-8.19;100.00
65280;BME280;51878;55.748;48.742;2023-02-12T02:08:08;98845.28;;;-8.37;100.00
65280;BME280;51878;55.748;48.742;2023-02-12T02:10:35;98896.53;;;-8.12;100.00
65280;BME280;51878;55.748;48.742;2023-02-12T02:13:02;98868.88;;;-8.35;100.00
65280;BME280;51878;55.748;48.742;2023-02-12T02:15:50;98868.28;;;-8.40;100.00
65280;BME280;51878;55.748;48.742;2023-02-12T02:18:42;98875.72;;;-8.33;100.00
65280;BME280;51878;55.748;48.742;2023-02-12T02:24:52;98876.75;;;-8.35;100.00
65280;BME280;51878;55.748;48.742;2023-02-12T02:36:14;98778.97;;;-8.89;100.00
65280;BME280;51878;55.748;48.742;2023-02-12T02:39:08;98832.13;;;-8.68;100.00
65280;BME280;51878;55.748;48.742;2023-02-12T02:44:36;98768.56;;;-9.08;100.00
65280;BME280;51878;55.748;48.742;2023-02-12T02:47:08;98786.75;;;-8.88;100.00
65280;BME280;51878;55.748;48.742;2023-02-12T02:49:42;98856.69;;;-8.69;100.00
65280;BME280;51878;55.748;48.742;2023-02-12T02:52:15;98789.34;;;-9.04;100.00
65280;BME280;51878;55.748;48.742;2023-02-12T02:54:47;98823.03;;;-8.79;100.00
65280;BME280;51878;55.748;48.742;2023-02-12T02:57:28;98852.72;;;-8.61;100.00
65280;BME280;51878;55.748;48.742;2023-02-12T03:00:06;98841.94;;;-8.72;100.00
65280;BME280;51878;55.748;48.742;2023-02-12T03:02:39;98851.75;;;-8.76;100.00
65280;BME280;51878;55.748;48.742;2023-02-12T03:05:14;98840.81;;;-8.84;100.00
65280;BME280;51878;55.748;48.742;2023-02-12T03:07:51;98844.53;;;-8.88;100.00
65280;BME280;51878;55.748;48.742;2023-02-12T03:10:27;98795.00;;;-9.11;100.00
65280;BME280;51878;55.748;48.742;2023-02-12T03:15:36;98739.03;;;-9.45;100.00
65280;BME280;51878;55.748;48.742;2023-02-12T03:18:08;98818.69;;;-9.13;100.00
65280;BME280;51878;55.748;48.742;2023-02-12T03:20:41;98797.78;;;-9.15;100.00
65280;BME280;51878;55.748;48.742;2023-02-12T03:23:13;98778.72;;;-9.36;100.00
65280;BME280;51878;55.748;48.742;2023-02-12T03:25:53;98761.09;;;-9.49;100.00
65280;BME280;51878;55.748;48.742;2023-02-12T03:28:31;98754.81;;;-9.29;100.00
65280;BME280;51878;55.748;48.742;2023-02-12T03:39:10;98845.66;;;-8.76;100.00
65280;BME280;51878;55.748;48.742;2023-02-12T03:41:47;98846.50;;;-8.76;100.00
65280;BME280;51878;55.748;48.742;2023-02-12T03:47:01;98821.69;;;-8.86;100.00
65280;BME280;51878;55.748;48.742;2023-02-12T03:49:35;98773.41;;;-9.17;100.00
65280;BME280;51878;55.748;48.742;2023-02-12T03:52:04;98781.59;;;-8.89;100.00
65280;BME280;51878;55.748;48.742;2023-02-12T03:54:31;98803.75;;;-8.62;100.00
65280;BME280;51878;55.748;48.742;2023-02-12T03:59:37;98818.41;;;-8.58;100.00
65280;BME280;51878;55.748;48.742;2023-02-12T04:02:05;98673.19;;;-9.41;100.00
65280;BME280;51878;55.748;48.742;2023-02-12T04:04:33;98736.00;;;-8.88;100.00
65280;BME280;51878;55.748;48.742;2023-02-12T04:07:01;98761.59;;;-8.92;100.00
65280;BME280;51878;55.748;48.742;2023-02-12T04:09:28;98806.47;;;-8.47;100.00
65280;BME280;51878;55.748;48.742;2023-02-12T04:23:49;98826.47;;;-8.29;100.00
65280;BME280;51878;55.748;48.742;2023-02-12T04:26:22;98823.34;;;-8.20;100.00
65280;BME280;51878;55.748;48.742;2023-02-12T04:29:16;98818.09;;;-8.20;100.00
65280;BME280;51878;55.748;48.742;2023-02-12T04:31:49;98833.16;;;-8.23;100.00
65280;BME280;51878;55.748;48.742;2023-02-12T04:34:48;98837.59;;;-8.24;100.00
65280;BME280;51878;55.748;48.742;2023-02-12T04:37:21;98797.47;;;-8.27;100.00
65280;BME280;51878;55.748;48.742;2023-02-12T04:39:50;98794.44;;;-8.20;100.00
65280;BME280;51878;55.748;48.742;2023-02-12T04:42:19;98738.75;;;-8.58;100.00
65280;BME280;51878;55.748;48.742;2023-02-12T04:44:46;98725.47;;;-8.55;100.00
65280;BME280;51878;55.748;48.742;2023-02-12T04:47:14;98650.31;;;-9.05;100.00
65280;BME280;51878;55.748;48.742;2023-02-12T04:49:41;98725.47;;;-8.55;100.00
65280;BME280;51878;55.748;48.742;2023-02-12T04:52:08;98728.31;;;-8.60;100.00
65280;BME280;51878;55.748;48.742;2023-02-12T04:54:36;98720.88;;;-8.67;100.00
65280;BME280;51878;55.748;48.742;2023-02-12T04:57:03;98799.59;;;-8.18;100.00
65280;BME280;51878;55.748;48.742;2023-02-12T04:59:30;98801.44;;;-8.20;100.00
65280;BME280;51878;55.748;48.742;2023-02-12T05:01:57;98773.38;;;-8.36;100.00
65280;BME280;51878;55.748;48.742;2023-02-12T05:04:24;98786.44;;;-8.34;100.00
65280;BME280;51878;55.748;48.742;2023-02-12T05:06:51;98781.22;;;-8.50;100.00
65280;BME280;51878;55.748;48.742;2023-02-12T05:09:19;98784.75;;;-8.35;100.00
65280;BME280;51878;55.748;48.742;2023-02-12T05:11:46;98727.41;;;-8.75;100.00
65280;BME280;51878;55.748;48.742;2023-02-12T05:14:13;98705.44;;;-8.89;100.00
65280;BME280;51878;55.748;48.742;2023-02-12T05:16:40;98729.06;;;-8.58;100.00
65280;BME280;51878;55.748;48.742;2023-02-12T05:19:07;98774.25;;;-8.19;100.00
65280;BME280;51878;55.748;48.742;2023-02-12T05:21:36;98753.22;;;-8.51;100.00
65280;BME280;51878;55.748;48.742;2023-02-12T05:24:03;98765.50;;;-8.36;100.00
65280;BME280;51878;55.748;48.742;2023-02-12T05:26:30;98694.34;;;-8.79;100.00
65280;BME280;51878;55.748;48.742;2023-02-12T05:28:57;98736.56;;;-8.50;100.00
65280;BME280;51878;55.748;48.742;2023-02-12T05:31:24;98757.50;;;-8.48;100.00
65280;BME280;51878;55.748;48.742;2023-02-12T05:33:52;98788.59;;;-8.57;100.00
65280;BME280;51878;55.748;48.742;2023-02-12T05:36:21;98798.16;;;-8.40;100.00
65280;BME280;51878;55.748;48.742;2023-02-12T05:38:50;98725.03;;;-8.79;100.00
65280;BME280;51878;55.748;48.742;2023-02-12T05:41:19;98774.34;;;-8.53;100.00
65280;BME280;51878;55.748;48.742;2023-02-12T05:43:48;98718.81;;;-8.94;100.00
65280;BME280;51878;55.748;48.742;2023-02-12T05:46:17;98773.41;;;-8.52;100.00
65280;BME280;51878;55.748;48.742;2023-02-12T05:48:45;98731.44;;;-8.85;100.00
65280;BME280;51878;55.748;48.742;2023-02-12T05:51:16;98793.09;;;-8.43;100.00
65280;BME280;51878;55.748;48.742;2023-02-12T05:53:45;98765.97;;;-8.59;100.00
65280;BME280;51878;55.748;48.742;2023-02-12T05:56:23;98715.63;;;-8.83;100.00
65280;BME280;51878;55.748;48.742;2023-02-12T05:59:00;98741.72;;;-8.64;100.00
65280;BME280;51878;55.748;48.742;2023-02-12T06:04:00;98791.28;;;-8.26;100.00
65280;BME280;51878;55.748;48.742;2023-02-12T06:06:29;98709.84;;;-8.58;100.00
65280;BME280;51878;55.748;48.742;2023-02-12T06:08:57;98763.66;;;-8.18;100.00
65280;BME280;51878;55.748;48.742;2023-02-12T06:11:25;98773.44;;;-7.90;100.00
65280;BME280;51878;55.748;48.742;2023-02-12T06:13:52;98748.69;;;-8.01;100.00
65280;BME280;51878;55.748;48.742;2023-02-12T06:16:22;98789.84;;;-7.70;100.00
65280;BME280;51878;55.748;48.742;2023-02-12T06:18:50;98758.06;;;-7.81;100.00
65280;BME280;51878;55.748;48.742;2023-02-12T06:21:18;98761.00;;;-7.72;99.16
65280;BME280;51878;55.748;48.742;2023-02-12T06:23:46;98720.75;;;-7.88;98.47
65280;BME280;51878;55.748;48.742;2023-02-12T06:26:14;98696.66;;;-7.96;97.46
65280;BME280;51878;55.748;48.742;2023-02-12T06:28:41;98784.50;;;-7.38;96.37
65280;BME280;51878;55.748;48.742;2023-02-12T06:33:47;98743.34;;;-7.70;96.18
65280;BME280;51878;55.748;48.742;2023-02-12T06:36:20;98773.38;;;-7.43;95.48
65280;BME280;51878;55.748;48.742;2023-02-12T06:38:47;98746.72;;;-7.68;95.25
65280;BME280;51878;55.748;48.742;2023-02-12T06:41:15;98774.69;;;-7.51;95.04
65280;BME280;51878;55.748;48.742;2023-02-12T06:43:42;98693.41;;;-7.85;94.91
65280;BME280;51878;55.748;48.742;2023-02-12T06:46:09;98758.94;;;-7.22;93.33
65280;BME280;51878;55.748;48.742;2023-02-12T06:48:36;98689.44;;;-7.62;92.50
65280;BME280;51878;55.748;48.742;2023-02-12T06:51:15;98677.00;;;-7.75;93.16
65280;BME280;51878;55.748;48.742;2023-02-12T06:53:43;98792.19;;;-7.05;93.60
65280;BME280;51878;55.748;48.742;2023-02-12T06:56:11;98714.72;;;-7.45;92.17
65280;BME280;51878;55.748;48.742;2023-02-12T06:58:41;98794.06;;;-7.07;93.01
65280;BME280;51878;55.748;48.742;2023-02-12T07:01:20;98689.25;;;-7.59;92.84
65280;BME280;51878;55.748;48.742;2023-02-12T07:03:50;98761.69;;;-7.09;91.82
65280;BME280;51878;55.748;48.742;2023-02-12T07:06:18;98727.44;;;-7.38;91.57
65280;BME280;51878;55.748;48.742;2023-02-12T07:08:46;98767.13;;;-7.12;91.65
65280;BME280;51878;55.748;48.742;2023-02-12T07:11:13;98751.63;;;-7.02;91.21
65280;BME280;51878;55.748;48.742;2023-02-12T07:13:41;98762.84;;;-6.84;91.18
65280;BME280;51878;55.748;48.742;2023-02-12T07:16:11;98723.78;;;-7.21;91.00
65280;BME280;51878;55.748;48.742;2023-02-12T07:18:39;98663.69;;;-7.43;90.85
65280;BME280;51878;55.748;48.742;2023-02-12T07:21:07;98777.69;;;-6.83;91.07
65280;BME280;51878;55.748;48.742;2023-02-12T07:23:34;98671.69;;;-7.44;91.02
65280;BME280;51878;55.748;48.742;2023-02-12T07:26:04;98761.22;;;-7.01;91.37
65280;BME280;51878;55.748;48.742;2023-02-12T07:28:32;98620.31;;;-8.09;92.01
65280;BME280;51878;55.748;48.742;2023-02-12T07:31:06;98762.31;;;-7.34;92.38
65280;BME280;51878;55.748;48.742;2023-02-12T07:33:35;98773.16;;;-7.24;92.35
65280;BME280;51878;55.748;48.742;2023-02-12T07:36:05;98661.13;;;-8.18;93.03
65280;BME280;51878;55.748;48.742;2023-02-12T07:38:32;98760.63;;;-7.35;92.66
65280;BME280;51878;55.748;48.742;2023-02-12T07:41:07;98723.22;;;-7.40;91.39
65280;BME280;51878;55.748;48.742;2023-02-12T07:43:37;98715.91;;;-7.65;91.51
65280;BME280;51878;55.748;48.742;2023-02-12T07:46:10;98709.84;;;-7.37;91.01
65280;BME280;51878;55.748;48.742;2023-02-12T07:48:38;98727.13;;;-7.48;91.06
65280;BME280;51878;55.748;48.742;2023-02-12T07:51:07;98757.16;;;-7.36;91.86
65280;BME280;51878;55.748;48.742;2023-02-12T07:53:35;98782.72;;;-7.23;91.56
65280;BME280;51878;55.748;48.742;2023-02-12T07:56:25;98725.16;;;-7.58;90.95
65280;BME280;51878;55.748;48.742;2023-02-12T07:58:58;98741.72;;;-7.28;89.93
65280;BME280;51878;55.748;48.742;2023-02-12T08:01:34;98730.50;;;-7.45;88.86
65280;BME280;51878;55.748;48.742;2023-02-12T08:04:12;98786.25;;;-6.80;88.97
65280;BME280;51878;55.748;48.742;2023-02-12T08:06:42;98779.50;;;-6.98;88.58
65280;BME280;51878;55.748;48.742;2023-02-12T08:09:13;98799.59;;;-6.97;88.08
65280;BME280;51878;55.748;48.742;2023-02-12T08:11:41;98699.03;;;-7.33;87.88
65280;BME280;51878;55.748;48.742;2023-02-12T08:14:14;98768.00;;;-6.97;89.01
65280;BME280;51878;55.748;48.742;2023-02-12T08:16:42;98746.44;;;-7.04;88.28
65280;BME280;51878;55.748;48.742;2023-02-12T08:19:10;98688.41;;;-7.45;87.85
65280;BME280;51878;55.748;48.742;2023-02-12T08:21:49;98741.91;;;-7.45;88.88
65280;BME280;51878;55.748;48.742;2023-02-12T08:24:16;98684.09;;;-7.46;88.26
65280;BME280;51878;55.748;48.742;2023-02-12T08:26:43;98743.25;;;-7.09;87.76
65280;BME280;51878;55.748;48.742;2023-02-12T08:29:16;98782.94;;;-7.12;88.12
65280;BME280;51878;55.748;48.742;2023-02-12T08:31:46;98769.06;;;-6.86;88.05
65280;BME280;51878;55.748;48.742;2023-02-12T08:34:25;98765.38;;;-6.97;87.05
65280;BME280;51878;55.748;48.742;2023-02-12T08:36:54;98569.13;;;-8.18;86.71
65280;BME280;51878;55.748;48.742;2023-02-12T08:39:23;98753.81;;;-7.09;87.39
65280;BME280;51878;55.748;48.742;2023-02-12T08:41:50;98685.31;;;-7.38;86.76
65280;BME280;51878;55.748;48.742;2023-02-12T08:44:19;98682.13;;;-7.14;85.48
65280;BME280;51878;55.748;48.742;2023-02-12T08:46:48;98758.97;;;-6.50;84.97
65280;BME280;51878;55.748;48.742;2023-02-12T08:49:20;98697.16;;;-6.88;84.36
65280;BME280;51878;55.748;48.742;2023-02-12T08:51:49;98760.38;;;-6.59;85.69
65280;BME280;51878;55.748;48.742;2023-02-12T08:54:19;98774.78;;;-6.50;84.97
65280;BME280;51878;55.748;48.742;2023-02-12T08:56:47;98681.94;;;-7.11;84.82
65280;BME280;51878;55.748;48.742;2023-02-12T08:59:15;98661.56;;;-7.36;85.66
65280;BME280;51878;55.748;48.742;2023-02-12T09:01:44;98681.66;;;-7.07;85.63
65280;BME280;51878;55.748;48.742;2023-02-12T09:04:16;98694.25;;;-6.97;86.19
65280;BME280;51878;55.748;48.742;2023-02-12T09:06:45;98760.59;;;-6.76;85.97
65280;BME280;51878;55.748;48.742;2023-02-12T09:09:13;98688.34;;;-7.30;86.97
65280;BME280;51878;55.748;48.742;2023-02-12T09:11:41;98706.22;;;-7.20;86.86
65280;BME280;51878;55.748;48.742;2023-02-12T09:14:12;98768.94;;;-6.70;87.43
65280;BME280;51878;55.748;48.742;2023-02-12T09:16:40;98774.50;;;-7.03;88.38
65280;BME280;51878;55.748;48.742;2023-02-12T09:19:09;98745.06;;;-7.10;88.43
65280;BME280;51878;55.748;48.742;2023-02-12T09:21:37;98721.97;;;-7.49;88.62
65280;BME280;51878;55.748;48.742;2023-02-12T09:24:04;98693.09;;;-7.51;88.93
65280;BME280;51878;55.748;48.742;2023-02-12T09:26:31;98777.59;;;-6.96;88.32
65280;BME280;51878;55.748;48.742;2023-02-12T09:29:01;98683.72;;;-7.40;87.24
65280;BME280;51878;55.748;48.742;2023-02-12T09:31:30;98767.53;;;-7.04;87.69
65280;BME280;51878;55.748;48.742;2023-02-12T09:34:00;98738.94;;;-7.24;88.05
65280;BME280;51878;55.748;48.742;2023-02-12T09:36:28;98749.94;;;-7.18;89.35
65280;BME280;51878;55.748;48.742;2023-02-12T09:38:55;98740.69;;;-7.39;89.71
65280;BME280;51878;55.748;48.742;2023-02-12T09:44:36;98776.97;;;-7.30;89.92
65280;BME280;51878;55.748;48.742;2023-02-12T09:47:33;98781.13;;;-7.40;90.35
65280;BME280;51878;55.748;48.742;2023-02-12T09:52:54;98726.09;;;-7.90;92.94
65280;BME280;51878;55.748;48.742;2023-02-12T09:55:27;98634.16;;;-8.52;92.77
65280;BME280;51878;55.748;48.742;2023-02-12T09:57:55;98720.72;;;-8.18;93.02
65280;BME280;51878;55.748;48.742;2023-02-12T10:00:29;98760.00;;;-7.85;92.38
65280;BME280;51878;55.748;48.742;2023-02-12T10:03:03;98657.50;;;-8.31;92.44
65280;BME280;51878;55.748;48.742;2023-02-12T10:05:40;98682.72;;;-8.43;92.68
65280;BME280;51878;55.748;48.742;2023-02-12T10:11:15;98762.78;;;-7.72;92.75
65280;BME280;51878;55.748;48.742;2023-02-12T10:19:28;98719.94;;;-7.74;92.82
65280;BME280;51878;55.748;48.742;2023-02-12T10:24:56;98583.88;;;-8.76;92.29
65280;BME280;51878;55.748;48.742;2023-02-12T10:27:43;98767.25;;;-7.58;91.77
65280;BME280;51878;55.748;48.742;2023-02-12T10:30:54;98714.19;;;-7.81;92.22
65280;BME280;51878;55.748;48.742;2023-02-12T10:33:29;98720.25;;;-7.64;92.52
65280;BME280;51878;55.748;48.742;2023-02-12T10:36:02;98693.31;;;-7.84;91.26
65280;BME280;51878;55.748;48.742;2023-02-12T10:38:36;98711.19;;;-7.75;90.13
65280;BME280;51878;55.748;48.742;2023-02-12T10:41:05;98773.75;;;-7.50;90.36
65280;BME280;51878;55.748;48.742;2023-02-12T10:43:32;98762.78;;;-7.42;90.02
65280;BME280;51878;55.748;48.742;2023-02-12T10:45:59;98673.38;;;-8.02;90.13
65280;BME280;51878;55.748;48.742;2023-02-12T10:48:32;98781.03;;;-7.69;90.10
65280;BME280;51878;55.748;48.742;2023-02-12T10:53:45;98744.97;;;-7.53;90.60
65280;BME280;51878;55.748;48.742;2023-02-12T10:58:41;98726.34;;;-7.64;91.11
65280;BME280;51878;55.748;48.742;2023-02-12T11:01:26;98787.78;;;-7.49;90.71
65280;BME280;51878;55.748;48.742;2023-02-12T11:03:57;98713.38;;;-7.97;91.40
65280;BME280;51878;55.748;48.742;2023-02-12T11:06:28;98708.34;;;-7.86;90.32
65280;BME280;51878;55.748;48.742;2023-02-12T11:08:57;98745.13;;;-7.70;91.75
65280;BME280;51878;55.748;48.742;2023-02-12T11:11:29;98704.94;;;-8.02;91.87
65280;BME280;51878;55.748;48.742;2023-02-12T11:13:59;98711.88;;;-8.01;92.55
65280;BME280;51878;55.748;48.742;2023-02-12T11:16:31;98767.69;;;-7.66;93.61
65280;BME280;51878;55.748;48.742;2023-02-12T11:19:01;98782.16;;;-7.73;93.10
65280;BME280;51878;55.748;48.742;2023-02-12T11:21:31;98649.44;;;-8.58;93.70
65280;BME280;51878;55.748;48.742;2023-02-12T11:27:11;98707.72;;;-8.05;93.89
65280;BME280;51878;55.748;48.742;2023-02-12T11:29:39;98769.13;;;-7.60;93.58
65280;BME280;51878;55.748;48.742;2023-02-12T11:32:08;98697.66;;;-8.13;93.91
65280;BME280;51878;55.748;48.742;2023-02-12T11:34:40;98752.03;;;-7.83;94.36
65280;BME280;51878;55.748;48.742;2023-02-12T11:37:15;98788.94;;;-7.69;94.35
65280;BME280;51878;55.748;48.742;2023-02-12T11:39:47;98686.81;;;-8.23;93.78
65280;BME280;51878;55.748;48.742;2023-02-12T11:42:19;98787.38;;;-7.57;93.43
65280;BME280;51878;55.748;48.742;2023-02-12T11:44:55;98731.44;;;-7.91;93.95
65280;BME280;51878;55.748;48.742;2023-02-12T11:47:28;98793.56;;;-7.58;94.16
65280;BME280;51878;55.748;48.742;2023-02-12T11:50:05;98706.47;;;-8.14;93.77
65280;BME280;51878;55.748;48.742;2023-02-12T11:52:35;98758.28;;;-7.70;93.50
65280;BME280;51878;55.748;48.742;2023-02-12T11:55:28;98696.28;;;-8.20;94.08
65280;BME280;51878;55.748;48.742;2023-02-12T11:58:01;98769.28;;;-7.63;94.24
65280;BME280;51878;55.748;48.742;2023-02-12T12:00:35;98769.16;;;-7.76;94.75
65280;BME280;51878;55.748;48.742;2023-02-12T12:14:52;98789.22;;;-7.59;94.28
65280;BME280;51878;55.748;48.742;2023-02-12T12:20:44;98674.25;;;-8.18;94.83
65280;BME280;51878;55.748;48.742;2023-02-12T12:29:02;98620.44;;;-8.57;95.01
65280;BME280;51878;55.748;48.742;2023-02-12T12:31:36;98754.09;;;-7.58;95.11
65280;BME280;51878;55.748;48.742;2023-02-12T12:34:10;98792.91;;;-7.48;95.20
65280;BME280;51878;55.748;48.742;2023-02-12T12:49:59;98781.88;;;-7.69;99.08
65280;BME280;51878;55.748;48.742;2023-02-12T12:55:51;98793.31;;;-7.70;99.56
65280;BME280;51878;55.748;48.742;2023-02-12T12:58:35;98801.66;;;-7.77;99.98
65280;BME280;51878;55.748;48.742;2023-02-12T13:09:50;98783.44;;;-7.80;100.00
65280;BME280;51878;55.748;48.742;2023-02-12T13:12:34;98794.47;;;-7.90;100.00
65280;BME280;51878;55.748;48.742;2023-02-12T13:23:31;98789.97;;;-7.87;100.00
65280;BME280;51878;55.748;48.742;2023-02-12T13:26:15;98804.31;;;-7.77;100.00
65280;BME280;51878;55.748;48.742;2023-02-12T13:28:54;98703.38;;;-8.37;100.00
65280;BME280;51878;55.748;48.742;2023-02-12T13:31:23;98739.31;;;-8.21;100.00
65280;BME280;51878;55.748;48.742;2023-02-12T13:34:03;98781.56;;;-7.94;100.00
65280;BME280;51878;55.748;48.742;2023-02-12T13:36:32;98690.28;;;-8.53;100.00
65280;BME280;51878;55.748;48.742;2023-02-12T13:39:14;98738.88;;;-8.29;100.00
65280;BME280;51878;55.748;48.742;2023-02-12T13:41:51;98812.63;;;-7.85;100.00
65280;BME280;51878;55.748;48.742;2023-02-12T13:47:39;98790.31;;;-7.94;100.00
65280;BME280;51878;55.748;48.742;2023-02-12T13:50:33;98813.38;;;-7.83;100.00
65280;BME280;51878;55.748;48.742;2023-02-12T13:53:57;98667.00;;;-8.75;100.00
65280;BME280;51878;55.748;48.742;2023-02-12T13:58:52;98722.78;;;-8.39;100.00
65280;BME280;51878;55.748;48.742;2023-02-12T14:01:42;98766.09;;;-8.15;100.00
65280;BME280;51878;55.748;48.742;2023-02-12T14:06:56;98817.38;;;-7.76;100.00
65280;BME280;51878;55.748;48.742;2023-02-12T14:12:29;98755.66;;;-8.16;100.00
65280;BME280;51878;55.748;48.742;2023-02-12T14:15:34;98831.38;;;-7.75;100.00
65280;BME280;51878;55.748;48.742;2023-02-12T14:18:35;98837.56;;;-7.76;100.00
65280;BME280;51878;55.748;48.742;2023-02-12T14:23:39;98781.84;;;-7.99;100.00
65280;BME280;51878;55.748;48.742;2023-02-12T14:26:13;98816.09;;;-7.69;100.00
65280;BME280;51878;55.748;48.742;2023-02-12T14:28:59;98817.75;;;-7.68;100.00
65280;BME280;51878;55.748;48.742;2023-02-12T14:31:34;98832.91;;;-7.71;100.00
65280;BME280;51878;55.748;48.742;2023-02-12T14:41:37;98735.34;;;-8.28;100.00
65280;BME280;51878;55.748;48.742;2023-02-12T14:49:27;98835.91;;;-7.63;100.00
65280;BME280;51878;55.748;48.742;2023-02-12T14:54:38;98734.31;;;-8.26;100.00
65280;BME280;51878;55.748;48.742;2023-02-12T14:59:42;98798.47;;;-7.82;100.00
65280;BME280;51878;55.748;48.742;2023-02-12T15:02:20;98788.88;;;-7.83;100.00
65280;BME280;51878;55.748;48.742;2023-02-12T15:04:50;98686.47;;;-8.63;100.00
65280;BME280;51878;55.748;48.742;2023-02-12T15:10:20;98839.56;;;-7.65;100.00
65280;BME280;51878;55.748;48.742;2023-02-12T15:18:18;98826.09;;;-7.75;100.00
65280;BME280;51878;55.748;48.742;2023-02-12T15:21:21;98819.75;;;-7.71;100.00
65280;BME280;51878;55.748;48.742;2023-02-12T15:26:39;98759.66;;;-8.09;100.00
65280;BME280;51878;55.748;48.742;2023-02-12T15:29:18;98755.31;;;-8.10;100.00
65280;BME280;51878;55.748;48.742;2023-02-12T15:31:51;98825.16;;;-7.58;100.00
65280;BME280;51878;55.748;48.742;2023-02-12T15:34:22;98843.19;;;-7.52;100.00
65280;BME280;51878;55.748;48.742;2023-02-12T15:36:50;98807.19;;;-7.82;100.00
65280;BME280;51878;55.748;48.742;2023-02-12T15:39:19;98841.94;;;-7.61;100.00
65280;BME280;51878;55.748;48.742;2023-02-12T15:41:48;98782.69;;;-7.98;100.00
65280;BME280;51878;55.748;48.742;2023-02-12T15:44:29;98817.94;;;-7.71;100.00
65280;BME280;51878;55.748;48.742;2023-02-12T15:47:14;98838.53;;;-7.63;100.00
65280;BME280;51878;55.748;48.742;2023-02-12T15:49:43;98848.38;;;-7.51;100.00
65280;BME280;51878;55.748;48.742;2023-02-12T15:52:18;98709.13;;;-8.30;100.00
65280;BME280;51878;55.748;48.742;2023-02-12T15:54:47;98857.81;;;-7.46;100.00
65280;BME280;51878;55.748;48.742;2023-02-12T15:57:23;98844.81;;;-7.50;100.00
65280;BME280;51878;55.748;48.742;2023-02-12T15:59:55;98854.50;;;-7.50;100.00
65280;BME280;51878;55.748;48.742;2023-02-12T16:02:28;98806.94;;;-7.77;100.00
65280;BME280;51878;55.748;48.742;2023-02-12T16:04:57;98840.59;;;-7.68;100.00